Time;durP1;ratioP1;P1;durP2;ratioP2;P2;SDS_P1;SDS_P2;PMS_P1;PMS_P2;Temp;Humidity;BMP_temperature;BMP_pressure;BME280_temperature;BME280_humidity;BME280_pressure;Samples;Min_cycle;Max_cycle;Signal;HPM_P1;HPM_P2
2022/12/19 00:01:30;;;;;;;39.78;20.15;;;1.00;99.90;;;;;;5060613;28;20059;-65
2022/12/19 00:04:02;;;;;;;40.83;19.38;;;1.00;99.90;;;;;;5024186;28;20057;-65
2022/12/19 00:06:28;;;;;;;35.33;16.98;;;1.00;99.90;;;;;;5045015;28;20045;-67
2022/12/19 00:08:55;;;;;;;39.13;17.40;;;1.00;99.90;;;;;;5003864;28;20128;-67
2022/12/19 00:11:22;;;;;;;39.78;19.98;;;1.00;99.90;;;;;;4957798;28;20171;-67
2022/12/19 00:14:00;;;;;;;41.78;19.88;;;1.00;99.90;;;;;;5171250;27;20130;-67
2022/12/19 00:16:27;;;;;;;41.67;17.77;;;1.00;99.90;;;;;;5156859;27;20042;-67
2022/12/19 00:18:55;;;;;;;39.45;18.48;;;1.00;99.90;;;;;;5127791;27;20116;-67
2022/12/19 00:21:22;;;;;;;40.35;18.33;;;1.00;99.90;;;;;;5097060;28;20450;-67
2022/12/19 00:23:49;;;;;;;41.60;18.50;;;1.00;99.90;;;;;;5076953;28;20041;-67
2022/12/19 00:26:16;;;;;;;36.63;19.95;;;1.00;99.90;;;;;;4950201;28;20036;-67
2022/12/19 00:28:43;;;;;;;40.50;20.77;;;1.00;99.90;;;;;;4920207;28;20046;-67
2022/12/19 00:31:09;;;;;;;41.95;20.15;;;1.00;99.90;;;;;;4947897;28;20043;-67
2022/12/19 00:33:35;;;;;;;43.13;20.00;;;1.00;99.90;;;;;;4908993;29;20517;-67
2022/12/19 00:36:06;;;;;;;42.47;20.13;;;1.10;99.90;;;;;;4789791;29;20043;-67
2022/12/19 00:38:44;;;;;;;47.50;20.88;;;1.10;99.90;;;;;;5191480;27;20144;-65
2022/12/19 00:41:21;;;;;;;47.58;20.88;;;1.10;99.90;;;;;;5159966;27;20407;-64
2022/12/19 00:43:50;;;;;;;44.72;21.02;;;1.10;99.90;;;;;;5109547;27;20048;-65
2022/12/19 00:46:16;;;;;;;46.00;21.10;;;1.10;99.90;;;;;;5065622;28;20056;-66
2022/12/19 00:48:42;;;;;;;41.92;18.83;;;1.10;99.90;;;;;;5098945;27;20483;-67
2022/12/19 00:51:13;;;;;;;43.08;20.95;;;1.10;99.90;;;;;;5091037;28;20041;-66
2022/12/19 00:53:39;;;;;;;48.25;21.35;;;1.10;99.90;;;;;;5033597;28;20085;-66
2022/12/19 00:56:08;;;;;;;39.67;18.83;;;1.10;99.90;;;;;;4972160;28;20050;-66
2022/12/19 00:58:56;;;;;;;42.72;20.92;;;1.20;99.90;;;;;;5177408;27;20601;-65
2022/12/19 01:01:23;;;;;;;40.78;19.48;;;1.20;99.90;;;;;;5162780;27;20580;-65
2022/12/19 01:03:49;;;;;;;42.00;20.33;;;1.20;99.90;;;;;;5127538;27;20051;-65
2022/12/19 01:06:15;;;;;;;42.45;19.45;;;1.10;99.90;;;;;;5121769;27;20385;-64
2022/12/19 01:08:40;;;;;;;43.88;20.33;;;1.20;99.90;;;;;;5052962;28;20041;-65
2022/12/19 01:11:07;;;;;;;44.63;20.77;;;1.20;99.90;;;;;;5054964;28;20051;-64
2022/12/19 01:13:34;;;;;;;43.08;20.33;;;1.20;99.90;;;;;;5105322;28;20291;-65
2022/12/19 01:16:04;;;;;;;40.13;17.45;;;1.20;99.90;;;;;;4995491;22;20585;-65
2022/12/19 01:18:30;;;;;;;40.13;18.63;;;1.20;99.90;;;;;;4873500;29;20053;-65
2022/12/19 01:20:59;;;;;;;39.60;18.42;;;1.30;99.90;;;;;;4877032;29;20143;-65
2022/12/19 01:23:36;;;;;;;43.72;19.77;;;1.30;99.90;;;;;;5164256;27;20137;-65
2022/12/19 01:26:02;;;;;;;40.67;18.45;;;1.30;99.90;;;;;;5155624;27;20043;-65
2022/12/19 01:28:28;;;;;;;39.70;20.48;;;1.30;99.90;;;;;;5134719;27;20040;-64
2022/12/19 01:30:55;;;;;;;42.70;21.77;;;1.30;99.90;;;;;;5116670;28;20595;-64
2022/12/19 01:33:20;;;;;;;41.97;19.48;;;1.30;99.90;;;;;;5043560;28;20318;-64
2022/12/19 01:35:47;;;;;;;38.40;19.77;;;1.30;99.90;;;;;;4983237;28;20042;-64
2022/12/19 01:38:18;;;;;;;46.25;19.98;;;1.30;99.90;;;;;;4910230;28;20054;-65
2022/12/19 01:40:55;;;;;;;41.53;19.08;;;1.30;99.90;;;;;;4839662;29;20050;-64
2022/12/19 01:43:22;;;;;;;37.72;18.73;;;1.40;99.90;;;;;;4723838;30;20048;-64
2022/12/19 01:45:54;;;;;;;40.15;19.90;;;1.40;99.90;;;;;;4690446;30;20046;-64
2022/12/19 01:48:35;;;;;;;35.60;17.35;;;1.40;99.90;;;;;;5193077;27;20152;-65
2022/12/19 01:51:06;;;;;;;42.20;20.45;;;1.40;99.90;;;;;;5125540;27;20206;-65
2022/12/19 01:53:39;;;;;;;43.38;19.77;;;1.40;99.90;;;;;;5095603;28;20040;-65
2022/12/19 01:56:08;;;;;;;45.63;19.63;;;1.40;99.90;;;;;;5074849;28;20533;-65
2022/12/19 01:58:35;;;;;;;42.88;19.40;;;1.40;99.90;;;;;;5037253;28;20127;-65
2022/12/19 02:01:00;;;;;;;43.85;20.23;;;1.40;99.90;;;;;;4997074;28;20058;-65
2022/12/19 02:03:29;;;;;;;45.80;20.35;;;1.40;99.90;;;;;;4953860;28;20035;-65
2022/12/19 02:05:57;;;;;;;45.58;19.20;;;1.40;99.90;;;;;;4922544;28;20404;-65
2022/12/19 02:08:25;;;;;;;41.33;19.40;;;1.40;99.90;;;;;;4933965;28;20182;-65
2022/12/19 02:10:50;;;;;;;41.90;20.05;;;1.40;99.90;;;;;;4883351;29;20033;-66
2022/12/19 02:13:28;;;;;;;43.17;19.58;;;1.50;99.90;;;;;;5194774;27;20490;-66
2022/12/19 02:16:06;;;;;;;40.88;19.15;;;1.50;99.90;;;;;;5182349;27;20042;-66
2022/12/19 02:18:38;;;;;;;51.50;20.63;;;1.50;99.90;;;;;;5107904;27;20036;-66
2022/12/19 02:21:21;;;;;;;41.65;19.35;;;1.60;99.90;;;;;;5112592;27;20036;-66
2022/12/19 02:24:11;;;;;;;45.67;19.17;;;1.50;99.90;;;;;;5035263;28;20534;-66
2022/12/19 02:26:57;;;;;;;37.85;17.67;;;1.60;99.90;;;;;;5019476;28;20045;-66
2022/12/19 02:29:48;;;;;;;40.08;18.98;;;1.60;99.90;;;;;;4997798;28;20064;-66
2022/12/19 02:32:32;;;;;;;47.55;21.55;;;1.60;99.90;;;;;;4979131;28;20042;-66
2022/12/19 02:35:13;;;;;;;51.38;22.13;;;1.60;99.90;;;;;;4885980;29;20048;-67
2022/12/19 02:40:33;;;;;;;73.38;33.42;;;1.60;99.90;;;;;;5196472;27;20382;-66
2022/12/19 02:43:00;;;;;;;65.88;26.15;;;1.80;99.90;;;;;;5147172;27;20175;-66
2022/12/19 02:45:36;;;;;;;55.63;23.77;;;1.70;99.90;;;;;;5182427;27;20033;-67
2022/12/19 02:48:04;;;;;;;57.13;23.63;;;1.70;99.90;;;;;;5134420;27;20706;-67
2022/12/19 02:50:41;;;;;;;58.65;23.90;;;1.60;99.90;;;;;;5099819;28;20033;-66
2022/12/19 02:53:09;;;;;;;48.47;21.10;;;1.60;99.90;;;;;;5014165;28;20042;-67
2022/12/19 02:56:06;;;;;;;45.67;19.75;;;1.60;99.90;;;;;;4977284;28;20047;-66
2022/12/19 02:58:49;;;;;;;50.63;22.00;;;1.60;99.90;;;;;;4826245;29;20148;-67
2022/12/19 03:01:52;;;;;;;45.42;20.55;;;1.60;99.90;;;;;;4671033;30;20043;-67
2022/12/19 03:04:54;;;;;;;50.22;21.17;;;1.60;99.90;;;;;;5191891;27;20473;-67
2022/12/19 03:07:42;;;;;;;52.50;20.83;;;1.50;99.90;;;;;;5158940;27;20050;-67
2022/12/19 03:10:34;;;;;;;48.05;18.52;;;1.60;99.90;;;;;;5136333;27;20084;-68
2022/12/19 03:13:13;;;;;;;56.40;21.48;;;1.60;99.90;;;;;;5123683;27;20035;-67
2022/12/19 03:15:39;;;;;;;47.22;21.33;;;1.60;99.90;;;;;;5015460;28;20040;-67
2022/12/19 03:18:05;;;;;;;48.97;20.65;;;1.60;99.90;;;;;;5015100;28;20039;-67
2022/12/19 03:21:13;;;;;;;50.08;22.30;;;1.60;99.90;;;;;;4938530;28;20172;-68
2022/12/19 03:23:39;;;;;;;45.15;20.13;;;1.60;99.90;;;;;;4939911;28;23311;-67
2022/12/19 03:26:08;;;;;;;51.35;19.73;;;1.70;99.90;;;;;;4855180;29;20044;-68
2022/12/19 03:28:50;;;;;;;50.65;20.75;;;1.70;99.90;;;;;;5193628;27;20364;-67
2022/12/19 03:31:20;;;;;;;41.63;19.02;;;1.70;99.90;;;;;;5141185;27;20035;-67
2022/12/19 03:33:49;;;;;;;43.08;19.23;;;1.70;99.90;;;;;;5159464;27;20211;-67
2022/12/19 03:36:20;;;;;;;54.53;20.85;;;1.70;99.90;;;;;;5159008;27;20484;-67
2022/12/19 03:38:47;;;;;;;61.20;22.88;;;1.70;99.90;;;;;;5103019;28;20493;-67
2022/12/19 03:41:15;;;;;;;58.90;22.77;;;1.80;99.90;;;;;;5087035;28;20054;-67
2022/12/19 03:43:43;;;;;;;49.75;20.95;;;1.80;99.90;;;;;;5113502;28;20047;-66
2022/12/19 03:46:20;;;;;;;57.15;22.60;;;1.90;99.90;;;;;;5038681;28;20076;-67
2022/12/19 03:48:50;;;;;;;57.22;22.77;;;1.90;99.90;;;;;;4967411;28;20051;-67
2022/12/19 03:51:27;;;;;;;55.22;21.98;;;2.00;99.90;;;;;;4941581;28;20097;-67
2022/12/19 03:54:06;;;;;;;63.03;24.65;;;2.10;99.90;;;;;;5196267;27;20144;-66
2022/12/19 03:56:57;;;;;;;51.97;21.63;;;2.30;99.90;;;;;;5153098;27;20049;-67
2022/12/19 03:59:37;;;;;;;48.75;21.80;;;2.30;99.90;;;;;;5138933;27;20469;-67
2022/12/19 04:02:03;;;;;;;52.35;23.25;;;2.40;99.90;;;;;;5086676;28;20048;-67
2022/12/19 04:04:32;;;;;;;59.00;24.00;;;2.50;99.90;;;;;;5067722;28;20167;-67
2022/12/19 04:06:58;;;;;;;50.63;21.80;;;2.50;99.90;;;;;;5043614;28;20049;-67
2022/12/19 04:09:24;;;;;;;56.55;22.40;;;2.50;99.90;;;;;;5022169;28;20042;-67
2022/12/19 04:12:01;;;;;;;53.08;22.40;;;2.60;99.90;;;;;;5007965;28;20357;-67
2022/12/19 04:14:32;;;;;;;50.13;21.25;;;2.60;99.90;;;;;;4895435;29;20127;-66
2022/12/19 04:19:52;;;;;;;52.22;21.80;;;2.60;99.90;;;;;;5198293;27;20132;-67
2022/12/19 04:22:36;;;;;;;53.63;23.58;;;2.70;99.90;;;;;;5170465;27;20038;-67
2022/12/19 04:25:03;;;;;;;54.67;23.98;;;2.70;99.90;;;;;;5133097;27;20101;-67
2022/12/19 04:27:34;;;;;;;44.35;19.02;;;2.70;99.90;;;;;;5077993;28;20059;-67
2022/12/19 04:30:01;;;;;;;51.88;20.95;;;2.70;99.90;;;;;;5076981;28;20082;-67
2022/12/19 04:32:28;;;;;;;45.10;20.55;;;2.70;99.90;;;;;;5123259;27;20433;-66
2022/12/19 04:34:54;;;;;;;62.80;25.80;;;2.80;99.90;;;;;;5092265;27;20059;-66
2022/12/19 04:37:20;;;;;;;56.95;23.88;;;2.80;99.90;;;;;;5054132;28;20399;-67
2022/12/19 04:39:56;;;;;;;63.35;26.63;;;2.80;99.90;;;;;;4968334;28;20067;-67
2022/12/19 04:45:04;;;;;;;50.90;22.40;;;2.80;99.90;;;;;;5206024;27;20477;-64
2022/12/19 04:47:29;;;;;;;57.88;23.48;;;2.80;99.90;;;;;;5201792;27;20464;-66
2022/12/19 04:49:55;;;;;;;55.50;24.40;;;2.80;99.90;;;;;;5194969;27;20037;-67
2022/12/19 04:52:20;;;;;;;57.78;25.38;;;2.90;99.90;;;;;;5160254;27;20376;-67
2022/12/19 04:54:46;;;;;;;55.90;25.40;;;2.90;99.90;;;;;;5138222;27;20031;-66
2022/12/19 04:57:12;;;;;;;56.03;23.25;;;2.80;99.90;;;;;;5157844;27;20030;-67
2022/12/19 04:59:37;;;;;;;50.10;21.80;;;3.00;99.90;;;;;;5130287;27;20044;-66
2022/12/19 05:02:06;;;;;;;60.83;24.75;;;3.00;99.90;;;;;;5028648;28;20046;-67
2022/12/19 05:04:31;;;;;;;52.85;22.83;;;3.00;99.90;;;;;;4973594;28;20082;-67
2022/12/19 05:06:57;;;;;;;59.30;23.73;;;3.00;99.90;;;;;;4887875;29;20487;-67
2022/12/19 05:09:34;;;;;;;52.95;21.65;;;3.00;99.90;;;;;;5186530;27;20120;-67
2022/12/19 05:12:00;;;;;;;58.17;25.60;;;3.10;99.90;;;;;;5150948;27;20043;-67
2022/12/19 05:14:25;;;;;;;57.13;23.00;;;3.20;99.90;;;;;;5110538;28;20456;-67
2022/12/19 05:16:51;;;;;;;58.60;24.08;;;3.20;99.90;;;;;;5070944;28;20042;-67
2022/12/19 05:19:17;;;;;;;60.08;25.23;;;3.20;99.90;;;;;;4997993;28;20495;-67
2022/12/19 05:21:42;;;;;;;68.75;26.23;;;3.30;99.90;;;;;;4990751;28;20408;-67
2022/12/19 05:24:08;;;;;;;63.03;24.17;;;3.30;99.90;;;;;;4966475;28;20070;-67
2022/12/19 05:26:34;;;;;;;69.50;26.98;;;3.30;99.90;;;;;;4922845;28;20403;-67
2022/12/19 05:28:59;;;;;;;71.68;27.50;;;3.30;99.90;;;;;;4855234;29;20356;-67
2022/12/19 05:31:25;;;;;;;58.25;25.75;;;3.30;99.90;;;;;;4766435;29;20510;-67
2022/12/19 05:34:02;;;;;;;47.17;20.83;;;3.40;99.90;;;;;;5194652;27;20118;-64
2022/12/19 05:36:28;;;;;;;58.00;24.83;;;3.40;99.90;;;;;;5144223;27;20043;-66
2022/12/19 05:38:54;;;;;;;61.70;23.70;;;3.40;99.90;;;;;;5152534;27;20027;-65
2022/12/19 05:41:20;;;;;;;59.83;24.45;;;3.50;99.90;;;;;;5149295;27;20042;-65
2022/12/19 05:43:50;;;;;;;49.10;21.13;;;3.50;99.90;;;;;;5153383;27;20035;-65
2022/12/19 05:46:16;;;;;;;53.38;23.95;;;3.50;99.90;;;;;;5124556;27;20044;-65
2022/12/19 05:48:41;;;;;;;54.60;22.73;;;3.60;99.90;;;;;;5088774;28;20105;-65
2022/12/19 05:51:07;;;;;;;51.10;23.65;;;3.60;99.90;;;;;;5080775;28;20123;-65
2022/12/19 05:53:36;;;;;;;53.45;21.65;;;3.60;99.90;;;;;;5042443;28;20483;-65
2022/12/19 05:56:13;;;;;;;47.58;21.73;;;3.70;99.90;;;;;;4973343;28;20045;-66
2022/12/19 05:58:50;;;;;;;47.70;20.48;;;3.70;99.90;;;;;;5192254;27;20486;-64
2022/12/19 06:01:18;;;;;;;40.17;17.35;;;3.70;99.90;;;;;;5169601;27;20042;-64
2022/12/19 06:03:44;;;;;;;40.38;18.88;;;3.70;99.90;;;;;;5144067;27;20046;-67
2022/12/19 06:06:13;;;;;;;39.60;17.83;;;3.80;99.90;;;;;;5146603;27;20040;-67
2022/12/19 06:08:39;;;;;;;42.45;20.58;;;3.90;99.90;;;;;;5106669;28;20387;-67
2022/12/19 06:11:06;;;;;;;46.15;21.40;;;3.80;99.90;;;;;;5092615;28;20029;-66
2022/12/19 06:13:32;;;;;;;42.33;20.52;;;3.80;99.90;;;;;;5096080;28;20035;-66
2022/12/19 06:16:18;;;;;;;43.17;20.15;;;3.90;99.90;;;;;;5122360;28;20035;-66
2022/12/19 06:18:44;;;;;;;40.20;19.77;;;3.90;99.90;;;;;;4992989;28;20138;-66
2022/12/19 06:21:15;;;;;;;36.28;18.08;;;4.00;99.90;;;;;;4918758;29;20042;-66
2022/12/19 06:23:54;;;;;;;47.10;20.95;;;4.00;99.90;;;;;;5191540;27;20120;-67
2022/12/19 06:26:21;;;;;;;31.75;15.18;;;4.00;99.90;;;;;;5174268;27;20037;-67
2022/12/19 06:28:51;;;;;;;47.55;21.33;;;4.00;99.90;;;;;;5174609;27;20052;-67
2022/12/19 06:31:19;;;;;;;45.93;20.57;;;4.10;99.90;;;;;;5183233;27;20040;-67
2022/12/19 06:33:44;;;;;;;36.55;18.60;;;4.10;99.90;;;;;;5149577;27;20071;-68
2022/12/19 06:36:22;;;;;;;35.63;17.35;;;4.10;99.90;;;;;;5122906;27;20482;-68
2022/12/19 06:38:49;;;;;;;39.05;18.48;;;4.10;99.90;;;;;;4986402;28;20166;-68
2022/12/19 06:44:01;;;;;;;38.15;17.88;;;4.10;99.90;;;;;;4820227;29;20047;-68
2022/12/19 06:46:27;;;;;;;37.03;18.08;;;4.20;99.90;;;;;;4809291;29;20039;-68
2022/12/19 06:49:05;;;;;;;40.47;17.60;;;4.20;99.90;;;;;;5211335;27;20151;-64
2022/12/19 06:51:31;;;;;;;35.40;16.95;;;4.20;99.90;;;;;;5172661;27;20035;-63
2022/12/19 06:53:57;;;;;;;44.80;20.38;;;4.20;99.90;;;;;;5168916;27;20054;-63
2022/12/19 06:56:22;;;;;;;39.95;18.65;;;4.20;99.90;;;;;;5164397;27;20110;-66
2022/12/19 06:58:48;;;;;;;35.08;16.10;;;4.20;99.90;;;;;;5113213;28;20076;-66
2022/12/19 07:01:29;;;;;;;35.72;17.15;;;4.20;99.90;;;;;;5081138;28;20121;-66
2022/12/19 07:03:55;;;;;;;40.75;18.40;;;4.20;99.90;;;;;;5036272;28;20124;-66
2022/12/19 07:06:22;;;;;;;43.20;19.92;;;4.20;99.90;;;;;;5061723;28;20045;-66
2022/12/19 07:08:47;;;;;;;42.33;19.33;;;4.30;99.90;;;;;;5054445;28;20056;-65
2022/12/19 07:11:13;;;;;;;43.20;19.20;;;4.30;99.90;;;;;;4971285;28;20768;-66
2022/12/19 07:16:15;;;;;;;32.88;15.38;;;4.30;99.90;;;;;;5171671;22;20149;-63
2022/12/19 07:18:41;;;;;;;37.53;18.17;;;4.30;99.90;;;;;;5134352;27;20040;-63
2022/12/19 07:21:10;;;;;;;42.15;19.08;;;4.30;99.90;;;;;;5124119;27;20127;-63
2022/12/19 07:23:36;;;;;;;31.98;15.30;;;4.40;99.90;;;;;;5162832;27;20459;-63
2022/12/19 07:26:02;;;;;;;42.20;18.63;;;4.40;99.90;;;;;;5124608;27;20046;-63
2022/12/19 07:28:28;;;;;;;38.17;19.08;;;4.40;99.90;;;;;;5132966;27;20046;-63
2022/12/19 07:30:54;;;;;;;40.50;20.08;;;4.40;99.90;;;;;;5089682;28;20051;-63
2022/12/19 07:33:19;;;;;;;34.65;16.15;;;4.40;99.90;;;;;;5051356;28;20095;-63
2022/12/19 07:35:55;;;;;;;41.10;18.30;;;4.50;99.90;;;;;;4963484;28;20065;-62
2022/12/19 07:41:00;;;;;;;31.02;14.98;;;4.50;99.90;;;;;;5189059;27;20136;-62
2022/12/19 07:43:26;;;;;;;32.05;15.38;;;4.50;99.90;;;;;;5151830;27;20046;-62
2022/12/19 07:45:55;;;;;;;38.90;17.88;;;4.50;99.90;;;;;;5151705;27;20096;-63
2022/12/19 07:48:22;;;;;;;34.20;15.73;;;4.60;99.90;;;;;;5176470;27;20046;-62
2022/12/19 07:50:48;;;;;;;37.22;17.02;;;4.60;99.90;;;;;;5108792;27;20067;-64
2022/12/19 07:53:14;;;;;;;33.85;16.58;;;4.60;99.90;;;;;;5075510;28;20487;-63
2022/12/19 07:55:40;;;;;;;43.78;18.63;;;4.70;99.90;;;;;;5031779;28;20609;-62
2022/12/19 07:58:06;;;;;;;71.22;19.80;;;4.70;99.90;;;;;;5003069;28;20306;-64
2022/12/19 08:00:32;;;;;;;28.27;15.02;;;4.70;99.90;;;;;;4968641;28;20396;-64
2022/12/19 08:02:58;;;;;;;37.03;16.63;;;4.70;99.90;;;;;;4958100;28;20046;-62
2022/12/19 08:05:35;;;;;;;35.33;16.63;;;4.70;99.90;;;;;;5173155;27;20134;-62
2022/12/19 08:08:01;;;;;;;35.88;17.20;;;4.80;99.90;;;;;;5126990;27;20043;-63
2022/12/19 08:10:26;;;;;;;36.42;16.83;;;4.80;99.90;;;;;;5126805;27;20541;-63
2022/12/19 08:12:52;;;;;;;34.65;17.15;;;4.80;99.90;;;;;;5115125;27;20130;-62
2022/12/19 08:15:18;;;;;;;31.75;15.10;;;4.90;99.90;;;;;;5065673;27;20034;-63
2022/12/19 08:17:43;;;;;;;33.47;15.73;;;4.90;99.90;;;;;;5035348;28;20099;-63
2022/12/19 08:20:12;;;;;;;32.42;15.88;;;5.00;99.90;;;;;;4969774;28;20043;-62
2022/12/19 08:22:38;;;;;;;18.55;9.52;;;5.00;99.90;;;;;;4950825;28;20046;-63
2022/12/19 08:25:05;;;;;;;26.15;13.95;;;5.00;99.90;;;;;;4913880;28;20536;-63
2022/12/19 08:27:31;;;;;;;32.42;15.80;;;5.00;99.90;;;;;;4839674;29;20043;-63
2022/12/19 08:30:05;;;;;;;22.67;12.00;;;5.10;99.90;;;;;;5189553;27;20128;-63
2022/12/19 08:32:30;;;;;;;29.85;14.70;;;5.10;99.90;;;;;;5153473;27;20574;-62
2022/12/19 08:34:56;;;;;;;23.50;12.98;;;5.20;99.90;;;;;;5140484;27;20047;-63
2022/12/19 08:37:21;;;;;;;26.85;14.07;;;5.20;99.90;;;;;;5074873;28;20041;-63
2022/12/19 08:39:47;;;;;;;24.48;13.88;;;5.20;99.90;;;;;;5017635;28;20062;-63
2022/12/19 08:42:13;;;;;;;29.88;14.50;;;5.20;99.90;;;;;;4997612;28;20068;-63
2022/12/19 08:44:38;;;;;;;31.52;14.48;;;5.20;99.90;;;;;;4982023;28;20059;-63
2022/12/19 08:47:04;;;;;;;33.95;16.15;;;5.20;99.90;;;;;;4937607;29;20051;-62
2022/12/19 08:49:30;;;;;;;27.45;14.10;;;5.20;99.90;;;;;;4933217;28;20053;-62
2022/12/19 08:54:53;;;;;;;28.80;14.77;;;5.40;99.90;;;;;;5188906;27;20541;-63
2022/12/19 08:57:18;;;;;;;33.58;15.43;;;5.40;99.90;;;;;;5125270;27;20043;-63
2022/12/19 08:59:44;;;;;;;35.78;17.40;;;5.40;99.90;;;;;;5113011;27;20052;-63
2022/12/19 09:02:10;;;;;;;27.70;14.00;;;5.40;99.90;;;;;;5166962;27;20045;-63
2022/12/19 09:04:36;;;;;;;28.27;13.98;;;5.50;99.90;;;;;;5138441;27;20040;-63
2022/12/19 09:07:02;;;;;;;30.77;14.88;;;5.50;99.90;;;;;;5060276;28;20053;-62
2022/12/19 09:09:28;;;;;;;28.98;15.95;;;5.60;99.90;;;;;;5051650;28;20111;-63
2022/12/19 09:11:53;;;;;;;29.25;13.60;;;5.70;99.90;;;;;;5018455;28;20050;-63
2022/12/19 09:14:19;;;;;;;27.88;15.20;;;5.70;99.90;;;;;;5010045;28;20037;-63
2022/12/19 09:16:44;;;;;;;34.47;16.73;;;5.70;99.90;;;;;;4944604;28;20029;-63
2022/12/19 09:19:22;;;;;;;33.42;17.02;;;5.70;99.90;;;;;;5194753;27;20128;-63
2022/12/19 09:21:47;;;;;;;31.52;15.05;;;5.80;99.90;;;;;;5151900;27;20043;-63
2022/12/19 09:24:13;;;;;;;32.10;17.33;;;5.70;99.90;;;;;;5149556;27;20039;-62
2022/12/19 09:26:40;;;;;;;29.67;16.05;;;5.80;99.90;;;;;;5109294;28;20044;-63
2022/12/19 09:29:07;;;;;;;30.27;16.38;;;5.90;99.90;;;;;;5087138;28;20075;-63
2022/12/19 09:31:33;;;;;;;31.98;15.77;;;5.90;99.90;;;;;;5080414;28;20121;-62
2022/12/19 09:33:58;;;;;;;32.30;15.43;;;5.90;99.90;;;;;;5060283;28;20045;-63
2022/12/19 09:36:24;;;;;;;36.90;17.65;;;6.00;99.90;;;;;;5030587;28;20045;-62
2022/12/19 09:38:53;;;;;;;30.92;16.15;;;6.00;99.90;;;;;;4969629;28;20127;-62
2022/12/19 09:41:24;;;;;;;30.40;14.65;;;6.00;99.90;;;;;;4915384;29;20373;-62
2022/12/19 09:44:17;;;;;;;35.00;15.45;;;6.10;99.90;;;;;;5206405;27;20124;-63
2022/12/19 09:46:57;;;;;;;36.80;17.10;;;6.10;99.90;;;;;;5169080;27;20050;-63
2022/12/19 09:49:35;;;;;;;30.50;15.50;;;6.10;99.90;;;;;;5142039;27;20428;-63
2022/12/19 09:52:17;;;;;;;24.23;13.82;;;6.10;99.90;;;;;;5175844;27;20050;-63
2022/12/19 09:55:13;;;;;;;25.58;14.10;;;6.20;99.90;;;;;;5097172;28;20080;-64
2022/12/19 09:57:59;;;;;;;28.30;14.55;;;6.20;99.90;;;;;;5052259;28;20077;-63
2022/12/19 10:00:32;;;;;;;27.27;14.10;;;6.20;99.90;;;;;;4898523;29;20053;-62
2022/12/19 10:03:11;;;;;;;27.45;14.20;;;6.20;99.90;;;;;;4869679;29;20180;-62
2022/12/19 10:05:45;;;;;;;21.50;12.63;;;6.20;99.90;;;;;;4831688;29;20046;-62
2022/12/19 10:08:34;;;;;;;42.20;22.13;;;6.20;99.90;;;;;;5188866;27;20394;-63
2022/12/19 10:11:23;;;;;;;37.60;18.03;;;6.50;99.90;;;;;;5070544;27;1925576;-63
2022/12/19 10:14:30;;;;;;;29.75;16.45;;;6.40;99.90;;;;;;5091003;28;20036;-63
2022/12/19 10:17:08;;;;;;;26.20;13.68;;;6.40;99.90;;;;;;5080025;28;20066;-63
2022/12/19 10:20:03;;;;;;;27.73;14.77;;;6.40;99.90;;;;;;5099243;28;20127;-62
2022/12/19 10:22:38;;;;;;;22.38;12.00;;;6.40;99.90;;;;;;5078031;28;20460;-62
2022/12/19 10:25:36;;;;;;;27.08;13.75;;;6.40;99.90;;;;;;5099134;28;20081;-62
2022/12/19 10:28:32;;;;;;;23.55;12.80;;;6.40;99.90;;;;;;5055751;28;20104;-63
2022/12/19 10:31:16;;;;;;;25.15;13.55;;;6.40;99.90;;;;;;5093763;28;20047;-62
2022/12/19 10:33:53;;;;;;;23.08;12.60;;;6.40;99.90;;;;;;5087677;28;20051;-62
2022/12/19 10:36:23;;;;;;;23.27;12.02;;;6.50;99.90;;;;;;5095798;28;20040;-62
2022/12/19 10:39:11;;;;;;;22.38;11.23;;;6.50;99.90;;;;;;5089071;28;20040;-62
2022/12/19 10:41:41;;;;;;;22.35;11.63;;;6.60;99.90;;;;;;5086625;28;20052;-63
2022/12/19 10:44:09;;;;;;;22.70;13.00;;;6.60;99.90;;;;;;5088940;28;20047;-62
2022/12/19 10:46:44;;;;;;;24.00;12.65;;;6.60;99.90;;;;;;5087212;28;20068;-62
2022/12/19 10:49:24;;;;;;;23.35;11.98;;;6.60;99.90;;;;;;5095007;28;20051;-63
2022/12/19 10:52:01;;;;;;;24.92;13.68;;;6.60;99.90;;;;;;5094199;28;20036;-62
2022/12/19 10:54:38;;;;;;;19.20;9.73;;;6.70;99.90;;;;;;5103517;28;20433;-62
2022/12/19 10:57:25;;;;;;;23.55;12.65;;;6.70;99.90;;;;;;5098695;28;20039;-63
2022/12/19 10:59:58;;;;;;;25.08;12.48;;;6.70;99.90;;;;;;5095020;28;20036;-63
2022/12/19 11:02:44;;;;;;;22.83;11.57;;;6.70;99.90;;;;;;5085534;28;20032;-63
2022/12/19 11:05:27;;;;;;;22.38;12.40;;;6.70;99.90;;;;;;5086284;28;20063;-62
2022/12/19 11:08:05;;;;;;;23.40;11.80;;;6.80;99.90;;;;;;5091474;28;20040;-63
2022/12/19 11:10:38;;;;;;;16.55;9.32;;;6.80;99.90;;;;;;5096479;28;20044;-62
2022/12/19 11:13:23;;;;;;;18.98;10.45;;;6.80;99.90;;;;;;5119582;27;20042;-62
2022/12/19 11:15:57;;;;;;;25.17;12.48;;;6.80;99.90;;;;;;5126715;27;20371;-63
2022/12/19 11:18:32;;;;;;;20.77;11.77;;;6.80;99.90;;;;;;5104278;28;20044;-62
2022/12/19 11:21:02;;;;;;;23.23;11.68;;;6.90;99.90;;;;;;5106041;28;20031;-62
2022/12/19 11:23:30;;;;;;;19.35;11.52;;;6.90;99.90;;;;;;5096083;28;20036;-62
2022/12/19 11:25:59;;;;;;;22.13;10.55;;;6.90;99.90;;;;;;5098275;28;20028;-62
2022/12/19 11:28:36;;;;;;;23.92;11.90;;;7.00;99.90;;;;;;5114365;27;20075;-62
2022/12/19 11:31:04;;;;;;;20.40;11.02;;;7.00;99.90;;;;;;5099416;27;20545;-62
2022/12/19 11:33:30;;;;;;;23.42;11.57;;;6.90;99.90;;;;;;5112159;28;20489;-63
2022/12/19 11:35:58;;;;;;;20.70;11.82;;;7.00;99.90;;;;;;5103029;27;20085;-63
2022/12/19 11:38:47;;;;;;;25.27;13.50;;;7.00;99.90;;;;;;5122788;27;20089;-63
2022/12/19 11:41:35;;;;;;;18.08;9.48;;;7.00;99.90;;;;;;5100662;28;20036;-63
2022/12/19 11:44:16;;;;;;;19.65;10.68;;;7.00;99.90;;;;;;5104274;28;20673;-63
2022/12/19 11:46:50;;;;;;;19.98;9.95;;;7.00;99.90;;;;;;5108220;27;20040;-62
2022/12/19 11:49:37;;;;;;;23.90;12.32;;;7.00;99.90;;;;;;5109554;27;20055;-62
2022/12/19 11:52:16;;;;;;;22.77;12.43;;;7.10;99.90;;;;;;5107194;28;20035;-63
2022/12/19 11:55:15;;;;;;;18.92;10.10;;;7.10;99.90;;;;;;5090776;28;20036;-62
2022/12/19 11:57:42;;;;;;;19.33;10.77;;;7.10;99.90;;;;;;5102887;28;20458;-63
2022/12/19 12:00:14;;;;;;;22.13;11.15;;;7.10;99.90;;;;;;5098415;28;20071;-62
2022/12/19 12:03:09;;;;;;;20.38;11.30;;;7.20;99.90;;;;;;5106543;27;20441;-62
2022/12/19 12:05:45;;;;;;;21.08;12.52;;;7.20;99.90;;;;;;5121700;27;20101;-62
2022/12/19 12:08:41;;;;;;;19.73;11.10;;;7.20;99.90;;;;;;5108208;27;20373;-63
2022/12/19 12:11:25;;;;;;;21.42;12.18;;;7.20;99.90;;;;;;5105011;28;20118;-63
2022/12/19 12:14:15;;;;;;;18.15;10.90;;;7.20;99.90;;;;;;5089684;27;20090;-62
2022/12/19 12:16:59;;;;;;;15.75;9.52;;;7.30;99.90;;;;;;5082360;28;20047;-63
2022/12/19 12:19:33;;;;;;;17.08;11.05;;;7.30;99.90;;;;;;5082465;28;20502;-62
2022/12/19 12:22:05;;;;;;;18.25;10.40;;;7.30;99.90;;;;;;5081503;28;20401;-62
2022/12/19 12:24:43;;;;;;;19.65;11.50;;;7.30;99.90;;;;;;5090151;28;20041;-62
2022/12/19 12:27:36;;;;;;;20.48;11.10;;;7.40;99.90;;;;;;5079723;28;20080;-62
2022/12/19 12:30:16;;;;;;;18.27;10.85;;;7.40;99.90;;;;;;5076570;28;20040;-63
2022/12/19 12:32:59;;;;;;;19.75;11.63;;;7.50;99.90;;;;;;5078792;28;20040;-62
2022/12/19 12:35:36;;;;;;;17.35;10.27;;;7.50;99.90;;;;;;5077024;28;20383;-63
2022/12/19 12:38:25;;;;;;;16.35;9.68;;;7.50;99.90;;;;;;5077323;28;20040;-62
2022/12/19 12:41:07;;;;;;;16.98;10.43;;;7.50;99.90;;;;;;5079106;28;20043;-63
2022/12/19 12:43:54;;;;;;;18.25;11.05;;;7.50;99.90;;;;;;5080744;28;20071;-63
2022/12/19 12:46:24;;;;;;;15.27;8.52;;;7.60;99.90;;;;;;5070345;28;20094;-63
2022/12/19 12:49:04;;;;;;;17.13;10.00;;;7.50;99.90;;;;;;5080021;28;20105;-62
2022/12/19 12:51:32;;;;;;;18.80;10.68;;;7.60;99.90;;;;;;5090217;28;20401;-62
2022/12/19 12:54:06;;;;;;;17.17;10.88;;;7.60;99.90;;;;;;5075632;28;20040;-63
2022/12/19 12:56:34;;;;;;;22.15;11.55;;;7.60;99.90;;;;;;5083603;28;20126;-62
2022/12/19 12:58:59;;;;;;;17.25;9.80;;;7.60;99.90;;;;;;5088604;28;20052;-63
2022/12/19 13:01:28;;;;;;;17.98;10.60;;;7.60;99.90;;;;;;5079407;28;20042;-62
2022/12/19 13:04:11;;;;;;;18.60;10.40;;;7.60;99.90;;;;;;5072296;28;20471;-63
2022/12/19 13:06:40;;;;;;;13.70;9.00;;;7.60;99.90;;;;;;5086271;28;20032;-63
2022/12/19 13:09:08;;;;;;;17.23;10.38;;;7.60;99.90;;;;;;5085002;28;20042;-63
2022/12/19 13:14:33;;;;;;;17.33;9.88;;;7.60;99.90;;;;;;5088471;28;20048;-62
2022/12/19 13:17:00;;;;;;;19.67;10.88;;;7.70;99.90;;;;;;5074115;22;20051;-69
2022/12/19 13:19:34;;;;;;;17.35;10.65;;;7.70;99.90;;;;;;5051013;28;20041;-69
2022/12/19 13:22:02;;;;;;;15.15;10.07;;;7.70;99.90;;;;;;5046592;28;20037;-68
2022/12/19 13:24:46;;;;;;;16.45;9.27;;;7.70;99.90;;;;;;5041782;28;20524;-68
2022/12/19 13:27:17;;;;;;;15.52;8.43;;;7.70;99.90;;;;;;5022428;28;20041;-68